Time;durP1;ratioP1;P1;durP2;ratioP2;P2;SDS_P1;SDS_P2;PMS_P1;PMS_P2;Temp;Humidity;BMP_temperature;BMP_pressure;BME280_temperature;BME280_humidity;BME280_pressure;Samples;Min_cycle;Max_cycle;Signal;HPM_P1;HPM_P2
2023/09/17 00:01:52;;;;;;;7.45;6.50;;;;;;;17.41;65.87;101223.50;5045897;28;20018;-78
2023/09/17 00:04:18;;;;;;;7.72;6.55;;;;;;;17.38;65.81;101229.41;5024819;28;20114;-75
2023/09/17 00:06:43;;;;;;;7.60;6.60;;;;;;;17.40;65.73;101232.72;5015434;28;20038;-75
2023/09/17 00:09:09;;;;;;;6.47;5.75;;;;;;;17.42;65.70;101237.91;5026685;28;20033;-76
2023/09/17 00:11:34;;;;;;;9.88;6.40;;;;;;;17.40;65.39;101243.63;5016375;28;20029;-76
2023/09/17 00:13:59;;;;;;;6.95;6.20;;;;;;;17.41;65.42;101239.81;5044803;28;20028;-76
2023/09/17 00:16:31;;;;;;;8.93;6.90;;;;;;;17.43;65.88;101237.72;5032319;28;20048;-77
2023/09/17 00:18:59;;;;;;;8.55;6.75;;;;;;;17.42;66.28;101241.50;5038931;28;20033;-77
2023/09/17 00:21:24;;;;;;;8.27;6.43;;;;;;;17.33;66.99;101237.44;5007438;28;20474;-77
2023/09/17 00:23:50;;;;;;;9.00;7.75;;;;;;;17.17;68.21;101246.25;5014552;28;20033;-77
2023/09/17 00:26:18;;;;;;;8.50;7.60;;;;;;;17.15;68.77;101256.53;5037682;28;20063;-77
2023/09/17 00:28:44;;;;;;;8.93;8.13;;;;;;;16.95;70.07;101247.59;5050081;28;20059;-77
2023/09/17 00:31:10;;;;;;;8.73;7.72;;;;;;;16.85;71.72;101247.31;5037903;28;20329;-77
2023/09/17 00:33:35;;;;;;;11.10;8.82;;;;;;;16.77;72.56;101251.13;5041941;28;20049;-77
2023/09/17 00:36:00;;;;;;;9.85;8.90;;;;;;;16.66;75.92;101244.59;5039002;28;20044;-77
2023/09/17 00:38:27;;;;;;;10.50;9.18;;;;;;;16.59;76.57;101238.41;5049413;28;20036;-77
2023/09/17 00:40:53;;;;;;;12.02;8.63;;;;;;;16.50;78.94;101235.16;5049321;28;20085;-77
2023/09/17 00:43:18;;;;;;;10.70;9.10;;;;;;;16.50;79.14;101242.50;5042102;28;20396;-77
2023/09/17 00:45:44;;;;;;;10.98;8.75;;;;;;;16.47;79.03;101234.81;5048513;28;20392;-75
2023/09/17 00:48:10;;;;;;;10.02;9.00;;;;;;;16.48;79.77;101231.03;5039116;28;20522;-75
2023/09/17 00:50:39;;;;;;;11.85;9.98;;;;;;;16.42;80.18;101221.88;5015898;28;20283;-75
2023/09/17 00:53:04;;;;;;;11.25;10.05;;;;;;;16.33;80.17;101215.09;5015606;28;20121;-75
2023/09/17 00:55:30;;;;;;;11.70;9.80;;;;;;;16.26;79.81;101223.31;5034496;28;20029;-75
2023/09/17 00:57:56;;;;;;;13.13;10.88;;;;;;;16.18;81.91;101226.31;5057872;28;20085;-75
2023/09/17 01:00:23;;;;;;;14.90;10.43;;;;;;;16.03;83.56;101224.81;5058431;28;20052;-75
2023/09/17 01:02:49;;;;;;;12.77;11.48;;;;;;;15.93;85.72;101237.25;5030706;28;20072;-76
2023/09/17 01:05:14;;;;;;;11.88;10.68;;;;;;;15.88;85.87;101236.03;5038286;28;20028;-76
2023/09/17 01:07:39;;;;;;;15.27;11.98;;;;;;;15.80;87.81;101220.00;5050682;28;20443;-76
2023/09/17 01:10:06;;;;;;;13.88;11.82;;;;;;;15.71;90.17;101222.16;5043565;28;20033;-76
2023/09/17 01:12:32;;;;;;;15.05;13.07;;;;;;;15.57;90.30;101216.00;5033127;28;20029;-76
2023/09/17 01:14:58;;;;;;;16.17;12.98;;;;;;;15.54;90.83;101197.44;5039131;28;20018;-76
2023/09/17 01:17:27;;;;;;;15.05;12.35;;;;;;;15.44;90.92;101187.09;5059602;28;20090;-76
2023/09/17 01:19:55;;;;;;;17.30;13.52;;;;;;;15.38;90.94;101192.56;5060517;28;20017;-76
2023/09/17 01:22:29;;;;;;;14.25;12.40;;;;;;;15.35;90.57;101187.63;5044203;28;20037;-75
2023/09/17 01:25:15;;;;;;;15.00;13.40;;;;;;;15.25;91.32;101188.91;5048074;28;20482;-76
2023/09/17 01:27:40;;;;;;;;;;;;;;;15.18;92.51;101174.56;5049094;28;20033;-75
2023/09/17 01:30:16;;;;;;;15.13;13.63;;;;;;;15.11;93.58;101168.38;5034919;28;19967;-75
2023/09/17 01:32:47;;;;;;;17.70;14.27;;;;;;;15.04;94.03;101162.16;5051897;28;20157;-75
2023/09/17 01:35:13;;;;;;;17.23;14.60;;;;;;;14.99;94.33;101158.25;5051574;28;20039;-75
2023/09/17 01:37:41;;;;;;;15.70;13.98;;;;;;;14.98;94.50;101170.13;5019069;28;20040;-75
2023/09/17 01:40:10;;;;;;;16.27;14.57;;;;;;;14.97;93.57;101168.47;5031154;28;20025;-75
2023/09/17 01:42:36;;;;;;;19.50;15.23;;;;;;;14.98;94.74;101172.00;5042309;28;20041;-75
2023/09/17 01:45:04;;;;;;;16.02;14.32;;;;;;;14.96;95.28;101174.09;5046589;22;20601;-75
2023/09/17 01:47:29;;;;;;;17.65;15.10;;;;;;;14.98;95.72;101177.44;5045902;28;20464;-75
2023/09/17 01:49:57;;;;;;;16.70;14.98;;;;;;;14.94;95.45;101182.47;5045500;28;20029;-75
2023/09/17 01:52:26;;;;;;;17.77;15.98;;;;;;;14.87;95.92;101194.41;5047764;28;20384;-75
2023/09/17 01:54:51;;;;;;;18.05;15.38;;;;;;;14.86;96.50;101193.53;5072767;28;20051;-75
2023/09/17 01:57:17;;;;;;;16.75;15.05;;;;;;;14.92;95.98;101208.09;5078547;28;20016;-75
2023/09/17 01:59:42;;;;;;;18.23;16.10;;;;;;;14.95;95.78;101234.78;5055523;28;20058;-74
2023/09/17 02:02:08;;;;;;;17.02;15.35;;;;;;;15.09;98.28;101246.41;5080371;28;20027;-75
2023/09/17 02:04:33;;;;;;;17.13;15.30;;;;;;;15.22;97.42;101246.31;5074072;28;20025;-75
2023/09/17 02:06:59;;;;;;;17.48;15.63;;;;;;;15.16;97.11;101244.50;5081893;28;20149;-75
2023/09/17 02:09:24;;;;;;;18.48;16.60;;;;;;;15.03;99.53;101231.00;5069881;28;20453;-75
2023/09/17 02:11:49;;;;;;;19.35;17.45;;;;;;;14.93;100.00;101223.31;5074117;28;20031;-75
2023/09/17 02:14:15;;;;;;;19.48;17.20;;;;;;;14.77;100.00;101211.13;5072575;28;20418;-75
2023/09/17 02:16:41;;;;;;;20.67;18.55;;;;;;;14.67;100.00;101206.94;5072843;28;20044;-74
2023/09/17 02:19:06;;;;;;;21.75;18.67;;;;;;;14.51;100.00;101207.44;5072553;28;20029;-75
2023/09/17 02:21:32;;;;;;;20.77;18.52;;;;;;;14.58;100.00;101197.41;5078418;28;20441;-75
2023/09/17 02:23:57;;;;;;;21.33;18.38;;;;;;;14.57;100.00;101201.19;5077745;28;20031;-74
2023/09/17 02:26:23;;;;;;;21.10;18.02;;;;;;;14.52;100.00;101203.69;5085583;28;20016;-75
2023/09/17 02:28:49;;;;;;;20.23;18.02;;;;;;;14.44;100.00;101195.81;5090635;28;20187;-75
2023/09/17 02:31:14;;;;;;;20.42;18.23;;;;;;;14.44;100.00;101195.81;5089449;28;20029;-75
2023/09/17 02:33:40;;;;;;;20.60;18.45;;;;;;;14.42;100.00;101190.59;5080138;28;20035;-75
2023/09/17 02:36:06;;;;;;;22.92;18.83;;;;;;;14.43;100.00;101194.16;5085907;28;20039;-75
2023/09/17 02:38:31;;;;;;;21.58;19.05;;;;;;;14.46;100.00;101193.72;5079917;28;20020;-75
2023/09/17 02:40:57;;;;;;;21.60;19.35;;;;;;;14.46;100.00;101188.31;5080100;28;20029;-75
2023/09/17 02:43:22;;;;;;;25.30;20.25;;;;;;;14.43;100.00;101172.47;5080781;28;20024;-75
2023/09/17 02:45:49;;;;;;;21.67;18.80;;;;;;;14.45;100.00;101173.91;5087392;28;20040;-75
2023/09/17 02:48:15;;;;;;;21.15;18.92;;;;;;;14.43;100.00;101161.66;5079280;28;20054;-75
2023/09/17 02:50:40;;;;;;;20.65;18.55;;;;;;;14.42;100.00;101166.22;5083587;28;20020;-75
2023/09/17 02:53:08;;;;;;;22.92;19.25;;;;;;;14.47;100.00;101157.47;5068496;28;20112;-75
2023/09/17 02:55:37;;;;;;;23.75;19.52;;;;;;;14.44;100.00;101147.06;5068459;28;20376;-75
2023/09/17 02:58:02;;;;;;;21.40;18.20;;;;;;;14.49;100.00;101141.81;5080430;28;20473;-75
2023/09/17 03:00:33;;;;;;;21.35;18.67;;;;;;;14.53;100.00;101137.63;5068858;28;20029;-75
2023/09/17 03:02:59;;;;;;;21.77;19.05;;;;;;;14.54;100.00;101139.28;5076540;28;20028;-74
2023/09/17 03:05:24;;;;;;;21.02;18.83;;;;;;;14.49;100.00;101139.09;5070577;28;20020;-74
2023/09/17 03:07:50;;;;;;;24.20;19.15;;;;;;;14.49;100.00;101136.38;5078723;28;20028;-74
2023/09/17 03:10:18;;;;;;;22.35;19.67;;;;;;;14.50;100.00;101129.94;5074858;28;20120;-74
2023/09/17 03:12:45;;;;;;;21.98;19.58;;;;;;;14.49;100.00;101123.69;5079054;28;20031;-74
2023/09/17 03:15:11;;;;;;;23.40;19.45;;;;;;;14.51;100.00;101118.03;5062801;28;20031;-74
2023/09/17 03:17:37;;;;;;;22.58;19.95;;;;;;;14.52;100.00;101117.00;5074735;28;20029;-74
2023/09/17 03:20:13;;;;;;;23.40;20.83;;;;;;;14.51;100.00;101110.75;5079833;28;20025;-74
2023/09/17 03:22:39;;;;;;;25.08;20.98;;;;;;;14.54;100.00;101114.91;5073374;28;20063;-74
2023/09/17 03:25:05;;;;;;;22.85;20.48;;;;;;;14.56;100.00;101115.53;5062565;28;20032;-74
2023/09/17 03:27:33;;;;;;;23.10;20.45;;;;;;;14.59;100.00;101114.25;5085950;28;20058;-74
2023/09/17 03:29:59;;;;;;;23.30;20.65;;;;;;;14.58;100.00;101121.56;5081965;28;20024;-74
2023/09/17 03:32:24;;;;;;;23.98;20.48;;;;;;;14.60;100.00;101124.03;5070874;28;20154;-74
2023/09/17 03:34:50;;;;;;;25.67;21.20;;;;;;;14.58;100.00;101124.28;5057755;28;20017;-74
2023/09/17 03:37:18;;;;;;;24.95;21.73;;;;;;;14.58;100.00;101126.97;5062956;28;20356;-73
2023/09/17 03:39:45;;;;;;;36.53;22.90;;;;;;;14.53;100.00;101118.66;5075222;28;20048;-74
2023/09/17 03:42:10;;;;;;;28.10;22.02;;;;;;;14.52;100.00;101123.25;5071554;28;20024;-74
2023/09/17 03:44:36;;;;;;;23.67;21.17;;;;;;;14.60;100.00;101113.19;5076324;28;20035;-74
2023/09/17 03:47:03;;;;;;;24.52;21.85;;;;;;;14.57;100.00;101106.34;5072534;28;20041;-74
2023/09/17 03:49:28;;;;;;;26.55;23.27;;;;;;;14.56;100.00;101110.91;5084091;28;20055;-74
2023/09/17 03:51:54;;;;;;;26.27;22.17;;;;;;;14.57;100.00;101106.34;5066216;28;20074;-74
2023/09/17 03:54:19;;;;;;;26.35;22.60;;;;;;;14.58;100.00;101104.47;5054178;28;20036;-74
2023/09/17 03:56:45;;;;;;;24.63;21.98;;;;;;;14.57;100.00;101117.19;5045154;28;20036;-74
2023/09/17 03:59:11;;;;;;;25.55;20.80;;;;;;;14.58;100.00;101124.28;5045433;28;20024;-73
2023/09/17 04:01:37;;;;;;;28.33;22.63;;;;;;;14.53;100.00;101121.38;5059444;28;20033;-73
2023/09/17 04:04:03;;;;;;;28.42;23.23;;;;;;;14.56;100.00;101118.22;5078570;28;20103;-73
2023/09/17 04:06:29;;;;;;;25.90;22.45;;;;;;;14.55;100.00;101117.41;5065845;28;20096;-73
2023/09/17 04:08:55;;;;;;;28.45;23.17;;;;;;;14.55;100.00;101111.16;5072720;28;20048;-73
2023/09/17 04:11:20;;;;;;;27.88;23.50;;;;;;;14.55;100.00;101122.00;5069628;28;20473;-73
2023/09/17 04:13:46;;;;;;;29.63;24.33;;;;;;;14.55;100.00;101112.00;5063327;28;20051;-73
2023/09/17 04:16:12;;;;;;;29.52;22.90;;;;;;;14.57;100.00;101109.06;5051501;28;20037;-74
2023/09/17 04:18:37;;;;;;;27.88;23.15;;;;;;;14.57;100.00;101106.34;5087019;28;20040;-74
2023/09/17 04:21:03;;;;;;;26.45;23.00;;;;;;;14.61;100.00;101099.47;5080297;28;20032;-74
2023/09/17 04:23:34;;;;;;;28.73;23.23;;;;;;;14.62;100.00;101100.28;5081148;28;20028;-74
2023/09/17 04:25:59;;;;;;;28.90;23.55;;;;;;;14.60;100.00;101103.22;5074112;28;20070;-74
2023/09/17 04:28:25;;;;;;;28.45;23.98;;;;;;;14.64;100.00;101096.31;5071275;28;20032;-74
2023/09/17 04:30:50;;;;;;;26.20;21.85;;;;;;;14.65;100.00;101095.25;5079274;28;20418;-74
2023/09/17 04:33:16;;;;;;;26.48;22.10;;;;;;;14.69;100.00;101096.50;5079436;28;20046;-74
2023/09/17 04:35:47;;;;;;;24.83;21.50;;;;;;;14.68;100.00;101089.41;5074374;28;20470;-74
2023/09/17 04:38:13;;;;;;;26.75;22.35;;;;;;;14.69;100.00;101080.25;5057133;28;20392;-74
2023/09/17 04:40:39;;;;;;;25.63;21.60;;;;;;;14.72;100.00;101083.56;5063989;28;20024;-74
2023/09/17 04:43:04;;;;;;;27.88;22.25;;;;;;;14.69;100.00;101085.66;5070739;28;20044;-74
2023/09/17 04:45:32;;;;;;;25.58;20.10;;;;;;;14.73;100.00;101090.66;5069881;28;20032;-73
2023/09/17 04:47:58;;;;;;;23.27;19.75;;;;;;;14.72;100.00;101086.28;5075926;28;20078;-74
2023/09/17 04:50:23;;;;;;;21.35;19.02;;;;;;;14.77;100.00;101091.88;5072531;28;20029;-74
2023/09/17 04:52:48;;;;;;;20.45;18.23;;;;;;;14.76;100.00;101096.44;5071046;28;20031;-73
2023/09/17 04:55:14;;;;;;;20.50;18.08;;;;;;;14.76;100.00;101096.44;5080150;28;20089;-74
2023/09/17 04:57:39;;;;;;;21.45;18.98;;;;;;;14.78;100.00;101105.19;5074147;28;20491;-73
2023/09/17 05:00:10;;;;;;;23.85;20.33;;;;;;;14.78;100.00;101101.66;5074094;28;20037;-74
2023/09/17 05:02:36;;;;;;;21.63;19.38;;;;;;;14.77;100.00;101102.72;5068985;28;20033;-74
2023/09/17 05:05:01;;;;;;;21.98;19.48;;;;;;;14.77;100.00;101098.13;5062960;28;20074;-74
2023/09/17 05:07:27;;;;;;;21.75;19.38;;;;;;;14.76;100.00;101090.22;5064424;28;20497;-73
2023/09/17 05:09:53;;;;;;;21.77;19.20;;;;;;;14.78;100.00;101097.06;5079735;28;20468;-74
2023/09/17 05:12:18;;;;;;;21.42;18.60;;;;;;;14.77;100.00;101108.13;5070247;28;20031;-74
2023/09/17 05:14:44;;;;;;;19.92;17.85;;;;;;;14.79;100.00;101103.34;5066418;28;20033;-73
2023/09/17 05:17:09;;;;;;;20.75;18.52;;;;;;;14.77;100.00;101103.53;5071051;28;20107;-73
2023/09/17 05:19:38;;;;;;;23.08;19.08;;;;;;;14.77;100.00;101110.84;5065000;28;20520;-74
2023/09/17 05:22:03;;;;;;;21.42;18.13;;;;;;;14.75;100.00;101105.63;5058085;28;20037;-75
2023/09/17 05:24:28;;;;;;;20.20;17.08;;;;;;;14.73;100.00;101094.22;5073931;28;20028;-74
2023/09/17 05:26:54;;;;;;;20.10;17.98;;;;;;;14.70;100.00;101098.16;5080251;28;20029;-75
2023/09/17 05:29:19;;;;;;;21.65;18.15;;;;;;;14.65;100.00;101089.81;5062616;28;20025;-74
2023/09/17 05:31:45;;;;;;;21.30;17.65;;;;;;;14.65;100.00;101089.81;5076247;28;20016;-75
2023/09/17 05:34:10;;;;;;;20.70;18.05;;;;;;;14.55;100.00;101084.06;5067841;28;20032;-74
2023/09/17 05:36:36;;;;;;;20.13;17.52;;;;;;;14.53;100.00;101086.16;5068198;28;20078;-75
2023/09/17 05:39:02;;;;;;;21.42;18.75;;;;;;;14.50;100.00;101084.72;5072412;28;20028;-75
2023/09/17 05:41:27;;;;;;;21.55;17.77;;;;;;;14.46;100.00;101088.91;5071766;28;20480;-77
2023/09/17 05:43:53;;;;;;;20.00;17.90;;;;;;;14.47;100.00;101089.75;5076494;28;20027;-76
2023/09/17 05:46:19;;;;;;;21.05;17.77;;;;;;;14.47;100.00;101082.44;5069992;28;20051;-76
2023/09/17 05:48:45;;;;;;;19.70;17.55;;;;;;;14.48;100.00;101080.53;5064886;28;20028;-75
2023/09/17 05:51:12;;;;;;;21.98;18.67;;;;;;;14.46;100.00;101085.38;5070711;28;20025;-76
2023/09/17 05:54:00;;;;;;;20.17;17.02;;;;;;;14.44;100.00;101082.88;5585965;22;20050;-76
2023/09/17 05:56:34;;;;;;;19.80;17.33;;;;;;;14.42;100.00;101076.03;5029970;28;20084;-76
2023/09/17 05:59:35;;;;;;;21.15;18.27;;;;;;;14.39;100.00;101083.53;5033512;28;20477;-76
2023/09/17 06:02:09;;;;;;;20.27;18.15;;;;;;;14.39;100.00;101079.97;5030324;28;20033;-75
2023/09/17 06:05:00;;;;;;;21.00;17.77;;;;;;;14.42;100.00;101084.16;5026400;28;20025;-75
2023/09/17 06:07:31;;;;;;;20.63;17.77;;;;;;;14.46;100.00;101080.78;5034902;28;20040;-75
2023/09/17 06:09:57;;;;;;;20.98;18.48;;;;;;;14.48;100.00;101080.53;5035354;28;20021;-76
2023/09/17 06:12:22;;;;;;;20.95;18.08;;;;;;;14.47;100.00;101087.84;5038112;28;20051;-75
2023/09/17 06:14:47;;;;;;;22.50;18.67;;;;;;;14.43;100.00;101078.50;5040226;28;20037;-76
2023/09/17 06:17:37;;;;;;;20.35;18.05;;;;;;;14.49;100.00;101084.91;5281490;23;20513;-77
2023/09/17 06:20:41;;;;;;;20.73;17.88;;;;;;;14.54;100.00;101083.25;5033951;28;20114;-76
2023/09/17 06:23:46;;;;;;;20.23;18.13;;;;;;;14.57;100.00;101081.97;5034796;28;20034;-77
2023/09/17 06:26:52;;;;;;;23.92;19.20;;;;;;;14.66;100.00;101077.13;5035396;28;20545;-78
2023/09/17 06:29:37;;;;;;;22.77;18.50;;;;;;;14.68;100.00;101069.63;5027483;28;20041;-83
2023/09/17 06:32:03;;;;;;;20.88;18.60;;;;;;;14.72;100.00;101061.88;5034023;28;20497;-77
2023/09/17 06:34:32;;;;;;;21.38;18.77;;;;;;;14.77;100.00;101067.50;5028089;28;20026;-78
2023/09/17 06:36:57;;;;;;;21.60;18.58;;;;;;;14.84;100.00;101070.97;5016134;28;20473;-77
2023/09/17 06:39:22;;;;;;;21.33;18.73;;;;;;;14.75;100.00;101070.41;5033353;28;20037;-76
2023/09/17 06:41:48;;;;;;;20.83;18.63;;;;;;;14.74;100.00;101065.22;5012204;28;20032;-76
2023/09/17 06:44:13;;;;;;;21.58;19.08;;;;;;;14.81;100.00;101072.25;5037815;28;20032;-76
2023/09/17 06:46:39;;;;;;;22.30;19.88;;;;;;;14.91;100.00;101070.94;5007450;28;20042;-76
2023/09/17 06:49:07;;;;;;;21.80;19.15;;;;;;;15.00;100.00;101064.19;5032650;28;20041;-75
2023/09/17 06:51:32;;;;;;;21.80;19.48;;;;;;;15.13;100.00;101066.78;5015872;28;20025;-76
2023/09/17 06:53:58;;;;;;;22.70;18.33;;;;;;;15.25;100.00;101063.34;5032509;28;20476;-76
2023/09/17 06:56:23;;;;;;;21.45;18.77;;;;;;;15.33;100.00;101073.88;5030929;28;20033;-76
2023/09/17 06:58:52;;;;;;;20.55;18.35;;;;;;;15.42;100.00;101061.72;5009392;28;20381;-76
2023/09/17 07:01:18;;;;;;;21.23;19.02;;;;;;;15.53;100.00;101076.41;5035637;28;20040;-76
2023/09/17 07:03:43;;;;;;;23.38;19.50;;;;;;;15.67;100.00;101062.72;5035246;28;20072;-76
2023/09/17 07:06:09;;;;;;;20.65;18.48;;;;;;;15.84;100.00;101066.47;5026769;28;20438;-76
2023/09/17 07:08:35;;;;;;;21.88;19.17;;;;;;;15.89;100.00;101073.97;5032250;28;20029;-77
2023/09/17 07:11:00;;;;;;;20.63;18.45;;;;;;;16.16;100.00;101070.91;5032057;28;20030;-75
2023/09/17 07:13:27;;;;;;;21.17;18.52;;;;;;;16.25;100.00;101068.69;5026329;28;20461;-75
2023/09/17 07:15:55;;;;;;;21.13;18.85;;;;;;;16.40;100.00;101061.00;5030989;28;20029;-76
2023/09/17 07:18:21;;;;;;;21.90;19.42;;;;;;;16.72;100.00;101058.00;4992275;28;20038;-75
2023/09/17 07:20:47;;;;;;;20.90;18.13;;;;;;;17.40;99.59;101068.59;4994390;28;20169;-76
2023/09/17 07:23:15;;;;;;;20.63;18.42;;;;;;;18.25;93.56;101063.59;4994423;28;20046;-78
2023/09/17 07:25:40;;;;;;;19.23;17.23;;;;;;;19.30;85.41;101061.53;4996165;28;20081;-76
2023/09/17 07:28:09;;;;;;;22.92;17.55;;;;;;;19.66;82.73;101059.31;4996721;28;20049;-77
2023/09/17 07:30:35;;;;;;;20.33;18.33;;;;;;;19.94;81.19;101057.50;4992852;28;20041;-76
2023/09/17 07:33:02;;;;;;;20.27;18.13;;;;;;;21.12;77.16;101057.81;4993750;28;20386;-78
2023/09/17 07:35:28;;;;;;;19.90;16.98;;;;;;;22.17;73.39;101070.94;4981462;28;20470;-78
2023/09/17 07:37:54;;;;;;;19.50;17.40;;;;;;;22.81;68.24;101064.19;4992661;28;20119;-78
2023/09/17 07:40:20;;;;;;;19.48;17.48;;;;;;;22.60;69.31;101063.38;4990453;28;20390;-77
2023/09/17 07:42:46;;;;;;;19.40;17.30;;;;;;;22.62;67.52;101071.31;4990410;28;20031;-77
2023/09/17 07:45:13;;;;;;;22.45;18.05;;;;;;;21.94;71.77;101067.59;4991985;28;20122;-77
2023/09/17 07:47:39;;;;;;;22.85;19.65;;;;;;;20.92;74.07;101063.97;5002156;23;20445;-78
2023/09/17 07:50:05;;;;;;;24.73;21.00;;;;;;;19.74;78.15;101061.59;5031690;28;20097;-77
2023/09/17 07:52:32;;;;;;;23.40;20.92;;;;;;;19.13;84.05;101056.94;5016974;28;20358;-78
2023/09/17 07:54:59;;;;;;;25.00;22.40;;;;;;;18.61;85.82;101066.97;5048716;28;20032;-76
2023/09/17 07:57:24;;;;;;;24.60;22.00;;;;;;;18.63;87.73;101067.56;5025175;28;20045;-76
2023/09/17 07:59:51;;;;;;;26.95;23.02;;;;;;;18.52;87.79;101071.19;5035063;28;20036;-77
2023/09/17 08:02:35;;;;;;;27.70;23.50;;;;;;;18.44;89.02;101071.56;5038520;22;20061;-77
2023/09/17 08:05:01;;;;;;;26.65;23.70;;;;;;;18.26;90.84;101072.59;5031764;28;20025;-76
2023/09/17 08:07:30;;;;;;;26.67;23.13;;;;;;;18.26;91.35;101070.69;5030203;28;20598;-78
2023/09/17 08:09:55;;;;;;;28.35;24.60;;;;;;;18.16;90.58;101074.03;5027958;28;20369;-77
2023/09/17 08:12:20;;;;;;;26.90;23.83;;;;;;;18.14;92.31;101072.66;5029457;28;20033;-77
2023/09/17 08:14:46;;;;;;;26.45;23.17;;;;;;;18.09;93.22;101065.16;5025106;28;20026;-77
2023/09/17 08:17:12;;;;;;;26.98;24.17;;;;;;;18.16;94.87;101070.50;5028152;28;20025;-77
2023/09/17 08:19:38;;;;;;;30.08;23.80;;;;;;;18.05;93.68;101076.81;5031336;28;20041;-77
2023/09/17 08:22:04;;;;;;;28.27;25.17;;;;;;;18.05;93.62;101076.81;5030448;28;20058;-75
2023/09/17 08:24:30;;;;;;;30.65;26.80;;;;;;;17.64;95.67;101080.31;5031719;28;20064;-76
2023/09/17 08:26:56;;;;;;;30.17;26.10;;;;;;;17.58;97.18;101075.81;5030787;28;20064;-75
2023/09/17 08:29:31;;;;;;;27.55;24.42;;;;;;;17.70;96.29;101079.34;5031832;28;20075;-75
2023/09/17 08:31:56;;;;;;;31.17;25.63;;;;;;;17.75;96.32;101069.63;5031715;28;20022;-76
2023/09/17 08:34:21;;;;;;;30.77;26.63;;;;;;;17.65;97.67;101076.50;5028301;28;20051;-75
2023/09/17 09:00:17;;;;;;;27.15;23.55;;;;;;;18.20;97.44;101076.28;5478804;22;20048;-76
2023/09/17 09:03:04;;;;;;;28.85;23.20;;;;;;;18.22;96.09;101085.06;5046174;28;20422;-77
2023/09/17 09:05:32;;;;;;;29.25;24.08;;;;;;;18.38;95.33;101069.81;5037990;28;20650;-77
2023/09/17 09:13:09;;;;;;;24.50;21.90;;;;;;;20.31;85.25;101065.00;5394521;22;20500;-77
2023/09/17 09:15:34;;;;;;;23.20;20.63;;;;;;;21.49;79.21;101078.03;5025236;28;20214;-78
2023/09/17 09:18:00;;;;;;;23.50;20.50;;;;;;;22.49;74.09;101089.97;5045886;28;20427;-79
2023/09/17 09:20:29;;;;;;;22.48;20.08;;;;;;;22.61;73.31;101084.25;5052165;28;20025;-76
2023/09/17 09:22:55;;;;;;;21.58;19.38;;;;;;;22.74;73.64;101084.78;5052641;28;20082;-77
2023/09/17 09:25:24;;;;;;;20.90;18.73;;;;;;;23.25;70.12;101081.25;5052271;28;20033;-79
2023/09/17 09:27:49;;;;;;;22.48;19.85;;;;;;;22.50;73.93;101082.59;5012697;28;20544;-77
2023/09/17 09:30:35;;;;;;;22.35;19.95;;;;;;;22.61;72.75;101070.50;5039903;28;20022;-77
2023/09/17 09:33:13;;;;;;;;;;;;;;;22.14;76.03;101066.81;5230431;22;20082;-77
2023/09/17 09:35:39;;;;;;;23.33;20.60;;;;;;;21.88;77.41;101064.03;5057842;28;19955;-77
2023/09/17 09:38:08;;;;;;;21.27;19.08;;;;;;;22.08;76.69;101068.72;5055342;28;20036;-77
2023/09/17 09:40:42;;;;;;;20.27;18.17;;;;;;;22.76;73.23;101066.97;5055451;28;20055;-77
2023/09/17 09:43:40;;;;;;;22.70;20.30;;;;;;;22.50;74.32;101074.34;5046852;28;20024;-77
2023/09/17 09:46:11;;;;;;;20.17;18.08;;;;;;;22.44;77.38;101073.50;5035846;28;20044;-77
2023/09/17 09:52:57;;;;;;;20.70;18.25;;;;;;;23.20;73.24;101071.06;5071126;28;20055;-77
2023/09/17 09:55:46;;;;;;;20.00;17.90;;;;;;;23.16;73.26;101073.50;5029204;28;20384;-76
2023/09/17 10:01:53;;;;;;;23.08;18.00;;;;;;;23.23;73.85;101069.69;4957486;28;20027;-76
2023/09/17 10:11:37;;;;;;;21.60;18.98;;;;;;;23.15;74.86;101074.59;4971867;28;20502;-76
2023/09/17 10:29:41;;;;;;;23.55;20.90;;;;;;;22.10;80.66;101062.97;5088099;22;20045;-75
2023/09/17 10:32:07;;;;;;;23.25;20.08;;;;;;;22.09;81.29;101064.91;5032403;28;20385;-76
2023/09/17 10:34:35;;;;;;;24.60;22.10;;;;;;;21.62;83.87;101061.16;4993932;28;20034;-75
2023/09/17 10:37:04;;;;;;;22.48;20.25;;;;;;;21.89;83.19;101054.66;4993928;28;20057;-76
2023/09/17 10:39:33;;;;;;;21.17;19.08;;;;;;;21.84;84.32;101062.91;5032453;28;20028;-76
2023/09/17 10:42:00;;;;;;;22.63;20.38;;;;;;;21.95;83.63;101056.34;5014850;28;20025;-76
2023/09/17 10:44:29;;;;;;;22.60;20.30;;;;;;;22.18;83.36;101058.88;5014423;28;20163;-76
2023/09/17 10:46:57;;;;;;;21.15;18.73;;;;;;;22.23;82.73;101062.47;5033823;28;20028;-76
2023/09/17 10:56:08;;;;;;;20.85;17.67;;;;;;;22.17;81.99;101049.00;5027599;28;20447;-75
2023/09/17 10:58:42;;;;;;;;;;;;;;;22.15;81.92;101054.78;5017775;28;20099;-76
2023/09/17 11:07:07;;;;;;;19.25;17.25;;;;;;;21.83;84.24;101047.53;5716420;23;20063;-74
2023/09/17 11:09:33;;;;;;;17.90;15.82;;;;;;;22.25;82.19;101049.28;5055317;28;20036;-75
2023/09/17 11:11:58;;;;;;;17.60;15.70;;;;;;;22.68;80.31;101049.09;5031899;28;20029;-76
2023/09/17 11:14:24;;;;;;;17.88;15.07;;;;;;;23.34;77.53;101046.59;5047481;28;20045;-76
2023/09/17 11:16:49;;;;;;;14.10;12.75;;;;;;;24.29;74.36;101041.25;5079314;28;20025;-75
2023/09/17 11:19:19;;;;;;;16.13;13.63;;;;;;;24.62;71.73;101033.31;5074732;28;20024;-75
2023/09/17 11:21:49;;;;;;;14.32;12.88;;;;;;;25.57;67.90;101046.75;5070077;28;20040;-75
2023/09/17 11:24:19;;;;;;;13.38;12.07;;;;;;;25.79;66.39;101048.13;5071667;28;20052;-75
2023/09/17 11:26:47;;;;;;;13.70;12.30;;;;;;;25.47;67.44;101046.03;5067033;28;20028;-75
2023/09/17 11:29:12;;;;;;;13.90;12.50;;;;;;;25.08;68.68;101045.03;5069703;28;20035;-75
2023/09/17 11:31:50;;;;;;;14.65;13.10;;;;;;;25.05;69.45;101045.63;5068785;28;20020;-75
2023/09/17 11:37:04;;;;;;;13.95;10.95;;;;;;;25.82;66.16;101046.72;5443922;22;20084;-76
2023/09/17 11:58:38;;;;;;;8.95;8.02;;;;;;;26.73;63.19;101037.38;5865995;22;20302;-77
2023/09/17 12:01:08;;;;;;;7.88;7.07;;;;;;;27.87;58.44;101043.56;5068781;28;20032;-77
2023/09/17 12:03:34;;;;;;;10.88;8.73;;;;;;;27.18;60.35;101049.88;5060119;28;20121;-77
2023/09/17 12:05:59;;;;;;;8.32;7.45;;;;;;;26.48;64.08;101046.91;5031941;28;20029;-77
2023/09/17 12:08:24;;;;;;;9.57;8.57;;;;;;;25.52;65.94;101041.28;5064040;28;20082;-77
2023/09/17 12:10:53;;;;;;;8.57;7.75;;;;;;;25.19;68.08;101052.09;5066804;28;20020;-77
2023/09/17 12:13:19;;;;;;;11.85;8.50;;;;;;;24.40;69.61;101044.75;5034048;28;20052;-75
2023/09/17 12:15:45;;;;;;;9.45;8.55;;;;;;;24.85;68.60;101047.47;5062006;28;20368;-75
2023/09/17 12:18:10;;;;;;;8.88;6.97;;;;;;;25.95;64.39;101050.66;5036793;28;20032;-76
2023/09/17 12:20:57;;;;;;;7.22;6.38;;;;;;;26.84;61.35;101051.03;5038373;28;20102;-76
2023/09/17 12:23:37;;;;;;;8.35;5.97;;;;;;;27.77;58.98;101054.81;5028781;28;20028;-76
2023/09/17 12:26:03;;;;;;;6.95;6.13;;;;;;;26.83;60.35;101047.47;5063529;28;20037;-76
2023/09/17 12:28:29;;;;;;;6.40;5.80;;;;;;;26.44;61.58;101046.69;5050678;28;20016;-76
2023/09/17 12:30:54;;;;;;;7.60;5.50;;;;;;;27.36;57.65;101053.69;5061415;28;20032;-76
2023/09/17 12:33:20;;;;;;;6.32;5.70;;;;;;;26.86;60.25;101046.03;5057418;28;20025;-75
2023/09/17 12:35:45;;;;;;;8.90;5.70;;;;;;;27.15;60.92;101050.50;5008668;28;20048;-76
2023/09/17 12:38:11;;;;;;;5.90;5.05;;;;;;;28.12;55.74;101046.88;5039861;28;20031;-76
2023/09/17 12:40:36;;;;;;;5.93;5.32;;;;;;;27.39;58.97;101044.78;5054269;28;20029;-76
2023/09/17 12:43:02;;;;;;;6.68;4.95;;;;;;;27.06;59.12;101040.13;5065461;28;20037;-76
2023/09/17 12:45:28;;;;;;;6.90;5.00;;;;;;;26.36;62.28;101044.59;5046634;28;20020;-76
2023/09/17 12:47:53;;;;;;;6.78;5.30;;;;;;;26.00;63.81;101042.31;5059941;28;20043;-76